sensor_id;sensor_type;location;lat;lon;timestamp;temperature;humidity
34989;DHT22;21192;40.182;44.516;2023-07-13T00:01:51;21.50;76.90
34989;DHT22;21192;40.182;44.516;2023-07-13T00:04:22;21.50;77.10
34989;DHT22;21192;40.182;44.516;2023-07-13T00:06:48;21.50;77.10
34989;DHT22;21192;40.182;44.516;2023-07-13T00:09:17;21.50;77.10
34989;DHT22;21192;40.182;44.516;2023-07-13T00:11:44;21.60;77.00
34989;DHT22;21192;40.182;44.516;2023-07-13T00:14:10;21.60;77.00
34989;DHT22;21192;40.182;44.516;2023-07-13T00:16:38;21.60;77.00
34989;DHT22;21192;40.182;44.516;2023-07-13T00:19:05;21.50;77.70
34989;DHT22;21192;40.182;44.516;2023-07-13T00:21:32;21.50;77.70
34989;DHT22;21192;40.182;44.516;2023-07-13T00:23:57;21.40;76.80
34989;DHT22;21192;40.182;44.516;2023-07-13T00:26:24;21.40;76.80
34989;DHT22;21192;40.182;44.516;2023-07-13T00:28:49;21.40;76.80
34989;DHT22;21192;40.182;44.516;2023-07-13T00:31:15;21.40;76.70
34989;DHT22;21192;40.182;44.516;2023-07-13T00:33:42;21.40;76.80
34989;DHT22;21192;40.182;44.516;2023-07-13T00:36:09;21.50;76.90
34989;DHT22;21192;40.182;44.516;2023-07-13T00:38:35;21.50;77.10
34989;DHT22;21192;40.182;44.516;2023-07-13T00:41:02;21.50;77.30
34989;DHT22;21192;40.182;44.516;2023-07-13T00:43:29;21.50;77.40
34989;DHT22;21192;40.182;44.516;2023-07-13T00:48:27;21.50;77.30
34989;DHT22;21192;40.182;44.516;2023-07-13T00:50:57;21.50;77.40
34989;DHT22;21192;40.182;44.516;2023-07-13T00:53:26;21.40;77.70
34989;DHT22;21192;40.182;44.516;2023-07-13T00:55:54;21.20;77.90
34989;DHT22;21192;40.182;44.516;2023-07-13T00:58:20;21.20;78.10
34989;DHT22;21192;40.182;44.516;2023-07-13T01:00:47;21.20;78.10
34989;DHT22;21192;40.182;44.516;2023-07-13T01:03:15;21.10;78.20
34989;DHT22;21192;40.182;44.516;2023-07-13T01:05:41;21.10;78.00
34989;DHT22;21192;40.182;44.516;2023-07-13T01:08:09;21.10;77.90
34989;DHT22;21192;40.182;44.516;2023-07-13T01:10:35;21.10;77.80
34989;DHT22;21192;40.182;44.516;2023-07-13T01:13:07;21.10;77.60
34989;DHT22;21192;40.182;44.516;2023-07-13T01:18:12;21.00;77.10
34989;DHT22;21192;40.182;44.516;2023-07-13T01:20:39;21.00;76.90
34989;DHT22;21192;40.182;44.516;2023-07-13T01:23:06;21.00;76.70
34989;DHT22;21192;40.182;44.516;2023-07-13T01:25:33;21.00;76.50
34989;DHT22;21192;40.182;44.516;2023-07-13T01:27:59;21.00;76.30
34989;DHT22;21192;40.182;44.516;2023-07-13T01:30:25;21.00;76.10
34989;DHT22;21192;40.182;44.516;2023-07-13T01:32:51;21.00;75.70
34989;DHT22;21192;40.182;44.516;2023-07-13T01:35:17;21.00;75.40
34989;DHT22;21192;40.182;44.516;2023-07-13T01:37:42;21.00;75.40
34989;DHT22;21192;40.182;44.516;2023-07-13T01:40:11;21.00;75.50
34989;DHT22;21192;40.182;44.516;2023-07-13T01:42:37;21.00;75.50
34989;DHT22;21192;40.182;44.516;2023-07-13T01:45:04;20.90;75.40
34989;DHT22;21192;40.182;44.516;2023-07-13T01:47:30;20.90;75.40
34989;DHT22;21192;40.182;44.516;2023-07-13T01:49:57;20.80;75.60
34989;DHT22;21192;40.182;44.516;2023-07-13T01:52:23;20.80;75.90
34989;DHT22;21192;40.182;44.516;2023-07-13T01:54:49;20.80;75.90
34989;DHT22;21192;40.182;44.516;2023-07-13T01:57:15;20.80;75.80
34989;DHT22;21192;40.182;44.516;2023-07-13T01:59:42;20.90;75.80
34989;DHT22;21192;40.182;44.516;2023-07-13T02:02:08;20.90;75.90
34989;DHT22;21192;40.182;44.516;2023-07-13T02:04:36;20.90;76.00
34989;DHT22;21192;40.182;44.516;2023-07-13T02:07:03;20.90;76.00
34989;DHT22;21192;40.182;44.516;2023-07-13T02:09:29;20.90;76.20
34989;DHT22;21192;40.182;44.516;2023-07-13T02:11:55;21.00;76.80
34989;DHT22;21192;40.182;44.516;2023-07-13T02:14:21;21.00;77.70
34989;DHT22;21192;40.182;44.516;2023-07-13T02:16:46;21.00;78.40
34989;DHT22;21192;40.182;44.516;2023-07-13T02:19:14;21.00;78.80
34989;DHT22;21192;40.182;44.516;2023-07-13T02:21:40;21.00;78.80
34989;DHT22;21192;40.182;44.516;2023-07-13T02:24:06;21.00;78.70
34989;DHT22;21192;40.182;44.516;2023-07-13T02:26:32;21.10;78.60
34989;DHT22;21192;40.182;44.516;2023-07-13T02:28:58;21.10;78.80
34989;DHT22;21192;40.182;44.516;2023-07-13T02:31:23;21.10;79.00
34989;DHT22;21192;40.182;44.516;2023-07-13T02:33:49;21.10;79.00
34989;DHT22;21192;40.182;44.516;2023-07-13T02:36:15;21.10;79.10
34989;DHT22;21192;40.182;44.516;2023-07-13T02:38:42;21.20;79.00
34989;DHT22;21192;40.182;44.516;2023-07-13T02:41:08;21.60;78.70
34989;DHT22;21192;40.182;44.516;2023-07-13T02:43:35;22.90;77.60
34989;DHT22;21192;40.182;44.516;2023-07-13T02:46:01;24.40;74.40
34989;DHT22;21192;40.182;44.516;2023-07-13T02:48:33;25.80;70.80
34989;DHT22;21192;40.182;44.516;2023-07-13T02:50:59;27.20;65.80
34989;DHT22;21192;40.182;44.516;2023-07-13T02:53:25;28.60;62.00
34989;DHT22;21192;40.182;44.516;2023-07-13T02:55:50;29.80;58.50
34989;DHT22;21192;40.182;44.516;2023-07-13T02:58:17;31.00;55.60
34989;DHT22;21192;40.182;44.516;2023-07-13T03:00:43;32.10;53.00
34989;DHT22;21192;40.182;44.516;2023-07-13T03:03:12;33.00;50.90
34989;DHT22;21192;40.182;44.516;2023-07-13T03:05:41;34.00;49.10
34989;DHT22;21192;40.182;44.516;2023-07-13T03:08:09;34.80;47.50
34989;DHT22;21192;40.182;44.516;2023-07-13T03:10:35;35.70;46.00
34989;DHT22;21192;40.182;44.516;2023-07-13T03:13:01;36.40;44.30
34989;DHT22;21192;40.182;44.516;2023-07-13T03:15:27;37.10;42.70
34989;DHT22;21192;40.182;44.516;2023-07-13T03:17:53;37.80;41.30
34989;DHT22;21192;40.182;44.516;2023-07-13T03:20:19;38.40;40.20
34989;DHT22;21192;40.182;44.516;2023-07-13T03:22:45;38.90;39.60
34989;DHT22;21192;40.182;44.516;2023-07-13T03:25:11;39.40;39.00
34989;DHT22;21192;40.182;44.516;2023-07-13T03:27:37;40.00;38.30
34989;DHT22;21192;40.182;44.516;2023-07-13T03:30:05;40.50;37.40
34989;DHT22;21192;40.182;44.516;2023-07-13T03:32:31;40.90;36.70
34989;DHT22;21192;40.182;44.516;2023-07-13T03:34:57;41.30;36.00
34989;DHT22;21192;40.182;44.516;2023-07-13T03:37:23;41.80;35.10
34989;DHT22;21192;40.182;44.516;2023-07-13T03:39:49;42.00;34.40
34989;DHT22;21192;40.182;44.516;2023-07-13T03:42:15;42.30;34.00
34989;DHT22;21192;40.182;44.516;2023-07-13T03:44:41;42.90;33.70
34989;DHT22;21192;40.182;44.516;2023-07-13T03:47:07;43.40;33.20
34989;DHT22;21192;40.182;44.516;2023-07-13T03:49:34;43.80;32.60
34989;DHT22;21192;40.182;44.516;2023-07-13T03:52:00;44.30;31.90
34989;DHT22;21192;40.182;44.516;2023-07-13T03:54:26;44.80;31.40
34989;DHT22;21192;40.182;44.516;2023-07-13T03:56:52;45.40;31.10
34989;DHT22;21192;40.182;44.516;2023-07-13T03:59:18;45.80;30.40
34989;DHT22;21192;40.182;44.516;2023-07-13T04:01:44;46.30;29.80
34989;DHT22;21192;40.182;44.516;2023-07-13T04:04:10;46.80;29.50
34989;DHT22;21192;40.182;44.516;2023-07-13T04:06:37;47.20;29.00
34989;DHT22;21192;40.182;44.516;2023-07-13T04:09:03;47.70;28.70
34989;DHT22;21192;40.182;44.516;2023-07-13T04:11:34;48.10;28.40
34989;DHT22;21192;40.182;44.516;2023-07-13T04:14:02;48.00;28.70
34989;DHT22;21192;40.182;44.516;2023-07-13T04:16:28;47.50;29.20
34989;DHT22;21192;40.182;44.516;2023-07-13T04:18:55;47.10;29.40
34989;DHT22;21192;40.182;44.516;2023-07-13T04:21:26;46.90;29.50
34989;DHT22;21192;40.182;44.516;2023-07-13T04:23:52;46.80;29.70
34989;DHT22;21192;40.182;44.516;2023-07-13T04:26:18;46.10;30.30
34989;DHT22;21192;40.182;44.516;2023-07-13T04:28:47;45.80;30.10
34989;DHT22;21192;40.182;44.516;2023-07-13T04:31:13;45.60;30.20
34989;DHT22;21192;40.182;44.516;2023-07-13T04:33:39;45.80;30.80
34989;DHT22;21192;40.182;44.516;2023-07-13T04:36:05;46.60;29.90
34989;DHT22;21192;40.182;44.516;2023-07-13T04:38:32;47.40;29.60
34989;DHT22;21192;40.182;44.516;2023-07-13T04:41:02;48.10;29.10
34989;DHT22;21192;40.182;44.516;2023-07-13T04:43:29;48.60;28.50
34989;DHT22;21192;40.182;44.516;2023-07-13T04:45:55;49.30;28.50
34989;DHT22;21192;40.182;44.516;2023-07-13T04:48:22;49.40;27.90
34989;DHT22;21192;40.182;44.516;2023-07-13T04:50:53;48.90;28.00
34989;DHT22;21192;40.182;44.516;2023-07-13T04:53:19;48.60;27.80
34989;DHT22;21192;40.182;44.516;2023-07-13T04:55:45;47.90;28.20
34989;DHT22;21192;40.182;44.516;2023-07-13T04:58:12;47.30;29.00
34989;DHT22;21192;40.182;44.516;2023-07-13T05:00:39;45.60;29.30
34989;DHT22;21192;40.182;44.516;2023-07-13T05:03:05;43.40;30.40
34989;DHT22;21192;40.182;44.516;2023-07-13T05:05:31;41.00;32.80
34989;DHT22;21192;40.182;44.516;2023-07-13T05:07:57;39.60;34.80
34989;DHT22;21192;40.182;44.516;2023-07-13T05:10:23;38.60;36.00
34989;DHT22;21192;40.182;44.516;2023-07-13T05:12:49;37.40;37.10
34989;DHT22;21192;40.182;44.516;2023-07-13T05:15:15;36.80;38.10
34989;DHT22;21192;40.182;44.516;2023-07-13T05:17:41;35.70;39.40
34989;DHT22;21192;40.182;44.516;2023-07-13T05:20:08;34.80;40.20
34989;DHT22;21192;40.182;44.516;2023-07-13T05:22:34;33.90;41.00
34989;DHT22;21192;40.182;44.516;2023-07-13T05:25:03;32.80;42.20
34989;DHT22;21192;40.182;44.516;2023-07-13T05:27:29;31.90;43.60
34989;DHT22;21192;40.182;44.516;2023-07-13T05:29:55;31.30;44.70
34989;DHT22;21192;40.182;44.516;2023-07-13T05:32:21;31.00;45.30
34989;DHT22;21192;40.182;44.516;2023-07-13T05:34:46;30.80;45.70
34989;DHT22;21192;40.182;44.516;2023-07-13T05:37:12;30.40;46.10
34989;DHT22;21192;40.182;44.516;2023-07-13T05:39:38;30.20;46.50
34989;DHT22;21192;40.182;44.516;2023-07-13T05:42:05;29.90;46.90
34989;DHT22;21192;40.182;44.516;2023-07-13T05:44:31;29.70;47.30
34989;DHT22;21192;40.182;44.516;2023-07-13T05:46:57;29.70;47.50
34989;DHT22;21192;40.182;44.516;2023-07-13T05:49:23;29.70;47.30
34989;DHT22;21192;40.182;44.516;2023-07-13T05:51:49;29.70;47.20
34989;DHT22;21192;40.182;44.516;2023-07-13T05:54:15;29.80;47.10
34989;DHT22;21192;40.182;44.516;2023-07-13T05:56:41;29.80;46.90
34989;DHT22;21192;40.182;44.516;2023-07-13T05:59:06;29.90;46.70
34989;DHT22;21192;40.182;44.516;2023-07-13T06:01:32;29.90;46.60
34989;DHT22;21192;40.182;44.516;2023-07-13T06:03:58;29.80;46.70
34989;DHT22;21192;40.182;44.516;2023-07-13T06:06:24;29.80;46.90
34989;DHT22;21192;40.182;44.516;2023-07-13T06:08:50;29.80;47.00
34989;DHT22;21192;40.182;44.516;2023-07-13T06:11:18;29.80;47.00
34989;DHT22;21192;40.182;44.516;2023-07-13T06:13:44;29.70;47.00
34989;DHT22;21192;40.182;44.516;2023-07-13T06:16:11;29.80;47.00
34989;DHT22;21192;40.182;44.516;2023-07-13T06:18:37;29.70;47.10
34989;DHT22;21192;40.182;44.516;2023-07-13T06:21:10;29.70;47.50
34989;DHT22;21192;40.182;44.516;2023-07-13T06:23:36;29.70;47.70
34989;DHT22;21192;40.182;44.516;2023-07-13T06:26:03;29.50;47.80
34989;DHT22;21192;40.182;44.516;2023-07-13T06:28:29;29.10;48.20
34989;DHT22;21192;40.182;44.516;2023-07-13T06:30:57;29.10;48.40
34989;DHT22;21192;40.182;44.516;2023-07-13T06:33:24;29.20;48.40
34989;DHT22;21192;40.182;44.516;2023-07-13T06:35:50;29.30;48.20
34989;DHT22;21192;40.182;44.516;2023-07-13T06:38:15;29.30;48.20
34989;DHT22;21192;40.182;44.516;2023-07-13T06:40:41;29.30;48.10
34989;DHT22;21192;40.182;44.516;2023-07-13T06:43:07;29.20;47.90
34989;DHT22;21192;40.182;44.516;2023-07-13T06:45:41;29.20;47.80
34989;DHT22;21192;40.182;44.516;2023-07-13T06:48:07;29.30;48.00
34989;DHT22;21192;40.182;44.516;2023-07-13T06:50:33;29.30;48.10
34989;DHT22;21192;40.182;44.516;2023-07-13T06:52:59;29.30;48.10
34989;DHT22;21192;40.182;44.516;2023-07-13T06:55:26;29.20;48.50
34989;DHT22;21192;40.182;44.516;2023-07-13T06:57:52;29.30;48.30
34989;DHT22;21192;40.182;44.516;2023-07-13T07:00:18;29.40;48.20
34989;DHT22;21192;40.182;44.516;2023-07-13T07:02:44;29.50;48.10
34989;DHT22;21192;40.182;44.516;2023-07-13T07:05:10;29.50;47.90
34989;DHT22;21192;40.182;44.516;2023-07-13T07:07:36;29.60;47.70
34989;DHT22;21192;40.182;44.516;2023-07-13T07:10:02;29.70;47.40
34989;DHT22;21192;40.182;44.516;2023-07-13T07:12:28;29.80;47.30
34989;DHT22;21192;40.182;44.516;2023-07-13T07:14:54;29.80;47.40
34989;DHT22;21192;40.182;44.516;2023-07-13T07:17:20;29.90;47.40
34989;DHT22;21192;40.182;44.516;2023-07-13T07:19:46;29.80;47.10
34989;DHT22;21192;40.182;44.516;2023-07-13T07:22:12;29.80;46.70
34989;DHT22;21192;40.182;44.516;2023-07-13T07:24:37;29.80;46.40
34989;DHT22;21192;40.182;44.516;2023-07-13T07:27:03;29.90;46.30
34989;DHT22;21192;40.182;44.516;2023-07-13T07:29:29;29.80;46.20
34989;DHT22;21192;40.182;44.516;2023-07-13T07:31:55;29.60;46.10
34989;DHT22;21192;40.182;44.516;2023-07-13T07:34:21;29.60;46.10
34989;DHT22;21192;40.182;44.516;2023-07-13T07:36:47;29.70;45.90
34989;DHT22;21192;40.182;44.516;2023-07-13T07:39:13;29.70;45.80
34989;DHT22;21192;40.182;44.516;2023-07-13T07:41:38;29.70;45.70
34989;DHT22;21192;40.182;44.516;2023-07-13T07:44:04;29.50;45.80
34989;DHT22;21192;40.182;44.516;2023-07-13T07:46:32;29.50;46.10
34989;DHT22;21192;40.182;44.516;2023-07-13T07:48:58;29.50;46.20
34989;DHT22;21192;40.182;44.516;2023-07-13T07:51:24;29.60;46.10
34989;DHT22;21192;40.182;44.516;2023-07-13T07:53:50;29.70;46.00
34989;DHT22;21192;40.182;44.516;2023-07-13T07:56:16;29.70;46.00
34989;DHT22;21192;40.182;44.516;2023-07-13T07:58:42;29.70;45.80
34989;DHT22;21192;40.182;44.516;2023-07-13T08:01:08;29.70;45.70
34989;DHT22;21192;40.182;44.516;2023-07-13T08:03:34;29.70;45.40
34989;DHT22;21192;40.182;44.516;2023-07-13T08:06:01;29.70;45.20
34989;DHT22;21192;40.182;44.516;2023-07-13T08:08:26;29.70;44.90
34989;DHT22;21192;40.182;44.516;2023-07-13T08:10:53;29.70;44.70
34989;DHT22;21192;40.182;44.516;2023-07-13T08:13:18;29.70;44.60
34989;DHT22;21192;40.182;44.516;2023-07-13T08:15:45;29.60;44.70
34989;DHT22;21192;40.182;44.516;2023-07-13T08:18:11;29.50;44.70
34989;DHT22;21192;40.182;44.516;2023-07-13T08:20:40;29.50;44.50
34989;DHT22;21192;40.182;44.516;2023-07-13T08:23:07;29.40;44.20
34989;DHT22;21192;40.182;44.516;2023-07-13T08:25:35;29.40;44.10
34989;DHT22;21192;40.182;44.516;2023-07-13T08:28:03;29.30;44.20
34989;DHT22;21192;40.182;44.516;2023-07-13T08:30:29;29.30;44.40
34989;DHT22;21192;40.182;44.516;2023-07-13T08:32:55;29.20;44.70
34989;DHT22;21192;40.182;44.516;2023-07-13T08:35:21;29.20;44.70
34989;DHT22;21192;40.182;44.516;2023-07-13T08:37:47;29.20;44.60
34989;DHT22;21192;40.182;44.516;2023-07-13T08:40:13;29.20;44.50
34989;DHT22;21192;40.182;44.516;2023-07-13T08:42:39;29.20;44.70
34989;DHT22;21192;40.182;44.516;2023-07-13T08:45:21;29.20;45.00
34989;DHT22;21192;40.182;44.516;2023-07-13T08:47:53;29.20;44.90
34989;DHT22;21192;40.182;44.516;2023-07-13T08:50:23;29.20;44.90
34989;DHT22;21192;40.182;44.516;2023-07-13T08:52:51;29.20;44.70
34989;DHT22;21192;40.182;44.516;2023-07-13T08:55:21;29.10;44.50
34989;DHT22;21192;40.182;44.516;2023-07-13T08:57:57;29.10;44.60
34989;DHT22;21192;40.182;44.516;2023-07-13T09:00:34;29.10;44.90
34989;DHT22;21192;40.182;44.516;2023-07-13T09:03:03;29.10;45.00
34989;DHT22;21192;40.182;44.516;2023-07-13T09:05:37;29.20;45.00
34989;DHT22;21192;40.182;44.516;2023-07-13T09:11:13;29.30;44.90
34989;DHT22;21192;40.182;44.516;2023-07-13T09:14:15;29.30;44.90
34989;DHT22;21192;40.182;44.516;2023-07-13T09:16:46;29.40;44.70
34989;DHT22;21192;40.182;44.516;2023-07-13T09:19:24;29.40;44.40
34989;DHT22;21192;40.182;44.516;2023-07-13T09:21:53;29.40;44.10
34989;DHT22;21192;40.182;44.516;2023-07-13T09:27:41;29.40;44.10
34989;DHT22;21192;40.182;44.516;2023-07-13T09:32:41;29.40;44.30
34989;DHT22;21192;40.182;44.516;2023-07-13T09:35:12;29.50;44.20
34989;DHT22;21192;40.182;44.516;2023-07-13T09:37:38;29.50;44.20
34989;DHT22;21192;40.182;44.516;2023-07-13T09:40:17;29.70;44.30
34989;DHT22;21192;40.182;44.516;2023-07-13T09:42:46;29.70;44.10
34989;DHT22;21192;40.182;44.516;2023-07-13T09:45:26;29.70;43.90
34989;DHT22;21192;40.182;44.516;2023-07-13T09:48:19;29.80;44.10
34989;DHT22;21192;40.182;44.516;2023-07-13T09:50:45;29.80;43.90
34989;DHT22;21192;40.182;44.516;2023-07-13T09:53:16;29.80;43.80
34989;DHT22;21192;40.182;44.516;2023-07-13T09:55:44;29.70;43.60
34989;DHT22;21192;40.182;44.516;2023-07-13T09:58:25;29.80;43.70
34989;DHT22;21192;40.182;44.516;2023-07-13T10:01:02;29.80;43.60
34989;DHT22;21192;40.182;44.516;2023-07-13T10:03:32;29.80;43.60
34989;DHT22;21192;40.182;44.516;2023-07-13T10:06:17;29.80;43.80
34989;DHT22;21192;40.182;44.516;2023-07-13T10:08:48;29.80;43.40
34989;DHT22;21192;40.182;44.516;2023-07-13T10:13:54;29.70;43.00
34989;DHT22;21192;40.182;44.516;2023-07-13T10:16:24;29.70;43.10
34989;DHT22;21192;40.182;44.516;2023-07-13T10:18:55;29.60;42.70
34989;DHT22;21192;40.182;44.516;2023-07-13T10:21:23;29.60;42.70
34989;DHT22;21192;40.182;44.516;2023-07-13T10:27:17;29.80;43.20
34989;DHT22;21192;40.182;44.516;2023-07-13T10:29:52;29.80;42.80
34989;DHT22;21192;40.182;44.516;2023-07-13T10:32:21;29.80;42.60
34989;DHT22;21192;40.182;44.516;2023-07-13T10:34:49;29.90;42.70
34989;DHT22;21192;40.182;44.516;2023-07-13T10:37:29;29.90;42.60
34989;DHT22;21192;40.182;44.516;2023-07-13T10:39:57;30.00;42.40
34989;DHT22;21192;40.182;44.516;2023-07-13T10:42:38;30.00;42.30
34989;DHT22;21192;40.182;44.516;2023-07-13T10:45:16;30.00;42.20
34989;DHT22;21192;40.182;44.516;2023-07-13T10:47:44;30.10;42.10
34989;DHT22;21192;40.182;44.516;2023-07-13T10:50:17;30.20;42.00
34989;DHT22;21192;40.182;44.516;2023-07-13T10:52:50;30.10;41.70
34989;DHT22;21192;40.182;44.516;2023-07-13T10:58:21;30.20;41.60
34989;DHT22;21192;40.182;44.516;2023-07-13T11:03:34;30.40;41.30
34989;DHT22;21192;40.182;44.516;2023-07-13T11:09:17;30.50;40.40
34989;DHT22;21192;40.182;44.516;2023-07-13T11:11:43;30.50;40.20
34989;DHT22;21192;40.182;44.516;2023-07-13T11:17:49;30.40;41.00
34989;DHT22;21192;40.182;44.516;2023-07-13T11:22:53;30.60;41.50
34989;DHT22;21192;40.182;44.516;2023-07-13T11:25:34;30.60;40.90
34989;DHT22;21192;40.182;44.516;2023-07-13T11:30:59;30.80;39.70
34989;DHT22;21192;40.182;44.516;2023-07-13T11:33:49;30.90;39.20
34989;DHT22;21192;40.182;44.516;2023-07-13T11:36:17;30.80;39.70
34989;DHT22;21192;40.182;44.516;2023-07-13T11:41:29;30.90;40.30
34989;DHT22;21192;40.182;44.516;2023-07-13T11:44:05;30.90;40.40
34989;DHT22;21192;40.182;44.516;2023-07-13T11:46:31;31.00;40.20
34989;DHT22;21192;40.182;44.516;2023-07-13T11:48:57;31.10;40.30
34989;DHT22;21192;40.182;44.516;2023-07-13T11:51:31;31.10;40.50
34989;DHT22;21192;40.182;44.516;2023-07-13T11:54:02;31.10;40.50
34989;DHT22;21192;40.182;44.516;2023-07-13T11:56:29;31.20;40.30
34989;DHT22;21192;40.182;44.516;2023-07-13T11:58:57;31.20;40.10
34989;DHT22;21192;40.182;44.516;2023-07-13T12:01:26;31.30;40.10
34989;DHT22;21192;40.182;44.516;2023-07-13T12:04:00;31.30;39.90
34989;DHT22;21192;40.182;44.516;2023-07-13T12:06:33;31.30;39.70
34989;DHT22;21192;40.182;44.516;2023-07-13T12:09:09;31.30;39.60
34989;DHT22;21192;40.182;44.516;2023-07-13T12:11:40;31.30;39.30
34989;DHT22;21192;40.182;44.516;2023-07-13T12:14:13;31.30;39.20
34989;DHT22;21192;40.182;44.516;2023-07-13T12:16:40;31.30;39.30
34989;DHT22;21192;40.182;44.516;2023-07-13T12:19:22;31.30;39.30
34989;DHT22;21192;40.182;44.516;2023-07-13T12:21:49;31.40;39.40
34989;DHT22;21192;40.182;44.516;2023-07-13T12:24:18;31.40;39.30
34989;DHT22;21192;40.182;44.516;2023-07-13T12:26:44;31.40;39.10
34989;DHT22;21192;40.182;44.516;2023-07-13T12:29:16;31.50;39.20
34989;DHT22;21192;40.182;44.516;2023-07-13T12:31:45;31.50;39.50
34989;DHT22;21192;40.182;44.516;2023-07-13T12:34:17;31.50;39.60
34989;DHT22;21192;40.182;44.516;2023-07-13T12:41:53;31.60;38.90
34989;DHT22;21192;40.182;44.516;2023-07-13T12:44:30;31.60;38.80
34989;DHT22;21192;40.182;44.516;2023-07-13T12:47:06;31.60;38.50
34989;DHT22;21192;40.182;44.516;2023-07-13T12:49:42;31.60;38.50
34989;DHT22;21192;40.182;44.516;2023-07-13T12:52:16;31.70;38.60
34989;DHT22;21192;40.182;44.516;2023-07-13T12:54:53;31.70;38.30
34989;DHT22;21192;40.182;44.516;2023-07-13T12:57:21;31.60;38.10
34989;DHT22;21192;40.182;44.516;2023-07-13T12:59:52;31.70;38.10
34989;DHT22;21192;40.182;44.516;2023-07-13T13:02:28;31.70;38.10
34989;DHT22;21192;40.182;44.516;2023-07-13T13:04:56;31.70;38.00
34989;DHT22;21192;40.182;44.516;2023-07-13T13:07:23;31.80;38.00
34989;DHT22;21192;40.182;44.516;2023-07-13T13:09:50;31.70;37.50
34989;DHT22;21192;40.182;44.516;2023-07-13T13:12:15;31.70;37.40
34989;DHT22;21192;40.182;44.516;2023-07-13T13:14:42;31.70;37.40
34989;DHT22;21192;40.182;44.516;2023-07-13T13:17:22;31.70;37.60
34989;DHT22;21192;40.182;44.516;2023-07-13T13:19:51;31.70;37.40
34989;DHT22;21192;40.182;44.516;2023-07-13T13:22:20;31.70;37.40
34989;DHT22;21192;40.182;44.516;2023-07-13T13:24:46;31.70;37.20
34989;DHT22;21192;40.182;44.516;2023-07-13T13:27:17;31.80;37.20
34989;DHT22;21192;40.182;44.516;2023-07-13T13:29:44;31.70;36.90
34989;DHT22;21192;40.182;44.516;2023-07-13T13:32:14;31.70;37.00
34989;DHT22;21192;40.182;44.516;2023-07-13T13:34:41;31.70;36.90
34989;DHT22;21192;40.182;44.516;2023-07-13T13:37:19;31.80;36.70
34989;DHT22;21192;40.182;44.516;2023-07-13T13:39:46;31.80;36.40
34989;DHT22;21192;40.182;44.516;2023-07-13T13:42:13;31.80;36.10
34989;DHT22;21192;40.182;44.516;2023-07-13T13:44:39;31.80;35.90
34989;DHT22;21192;40.182;44.516;2023-07-13T13:47:30;31.70;35.70
34989;DHT22;21192;40.182;44.516;2023-07-13T13:49:57;31.70;35.70
34989;DHT22;21192;40.182;44.516;2023-07-13T13:52:24;31.70;35.60
34989;DHT22;21192;40.182;44.516;2023-07-13T13:54:51;31.70;35.80
34989;DHT22;21192;40.182;44.516;2023-07-13T13:57:22;31.70;35.90
34989;DHT22;21192;40.182;44.516;2023-07-13T13:59:49;31.70;35.70
34989;DHT22;21192;40.182;44.516;2023-07-13T14:02:27;31.70;35.90
34989;DHT22;21192;40.182;44.516;2023-07-13T14:04:59;31.70;36.00
34989;DHT22;21192;40.182;44.516;2023-07-13T14:07:26;31.70;36.20
34989;DHT22;21192;40.182;44.516;2023-07-13T14:09:55;31.60;36.40
34989;DHT22;21192;40.182;44.516;2023-07-13T14:12:21;31.60;36.60
34989;DHT22;21192;40.182;44.516;2023-07-13T14:14:47;31.60;36.40
34989;DHT22;21192;40.182;44.516;2023-07-13T14:17:20;31.60;36.30
34989;DHT22;21192;40.182;44.516;2023-07-13T14:19:51;31.60;36.40
34989;DHT22;21192;40.182;44.516;2023-07-13T14:22:23;31.60;36.40
34989;DHT22;21192;40.182;44.516;2023-07-13T14:24:51;31.60;36.50
34989;DHT22;21192;40.182;44.516;2023-07-13T14:27:17;31.60;36.60
34989;DHT22;21192;40.182;44.516;2023-07-13T14:29:43;31.60;36.80
34989;DHT22;21192;40.182;44.516;2023-07-13T14:32:11;31.60;36.90
34989;DHT22;21192;40.182;44.516;2023-07-13T14:34:37;31.50;37.10
34989;DHT22;21192;40.182;44.516;2023-07-13T14:37:03;31.50;37.40
34989;DHT22;21192;40.182;44.516;2023-07-13T14:39:30;31.40;37.70
34989;DHT22;21192;40.182;44.516;2023-07-13T14:41:57;31.40;38.30
34989;DHT22;21192;40.182;44.516;2023-07-13T14:44:28;31.40;38.40
34989;DHT22;21192;40.182;44.516;2023-07-13T14:46:55;31.40;38.70
34989;DHT22;21192;40.182;44.516;2023-07-13T14:51:59;31.30;40.20
34989;DHT22;21192;40.182;44.516;2023-07-13T14:54:26;31.30;42.30
34989;DHT22;21192;40.182;44.516;2023-07-13T14:56:52;31.20;43.90
34989;DHT22;21192;40.182;44.516;2023-07-13T14:59:17;31.10;44.70
34989;DHT22;21192;40.182;44.516;2023-07-13T15:01:48;31.10;45.20
34989;DHT22;21192;40.182;44.516;2023-07-13T15:04:15;31.00;45.60
34989;DHT22;21192;40.182;44.516;2023-07-13T15:07:00;31.00;46.20
34989;DHT22;21192;40.182;44.516;2023-07-13T15:09:28;30.90;47.00
34989;DHT22;21192;40.182;44.516;2023-07-13T15:11:58;30.90;47.30
34989;DHT22;21192;40.182;44.516;2023-07-13T15:14:25;30.70;48.00
34989;DHT22;21192;40.182;44.516;2023-07-13T15:16:54;30.70;48.30
34989;DHT22;21192;40.182;44.516;2023-07-13T15:19:21;30.60;48.60
34989;DHT22;21192;40.182;44.516;2023-07-13T15:21:49;30.50;49.00
34989;DHT22;21192;40.182;44.516;2023-07-13T15:24:15;30.50;49.40
34989;DHT22;21192;40.182;44.516;2023-07-13T15:26:42;30.40;49.60
34989;DHT22;21192;40.182;44.516;2023-07-13T15:29:12;30.30;49.80
34989;DHT22;21192;40.182;44.516;2023-07-13T15:31:38;30.30;50.00
34989;DHT22;21192;40.182;44.516;2023-07-13T15:34:12;30.20;50.30
34989;DHT22;21192;40.182;44.516;2023-07-13T15:36:39;30.20;50.80
34989;DHT22;21192;40.182;44.516;2023-07-13T15:39:06;30.20;51.30
34989;DHT22;21192;40.182;44.516;2023-07-13T15:41:32;30.10;51.60
34989;DHT22;21192;40.182;44.516;2023-07-13T15:44:00;30.00;52.00
34989;DHT22;21192;40.182;44.516;2023-07-13T15:46:30;29.90;52.30
34989;DHT22;21192;40.182;44.516;2023-07-13T15:48:57;29.90;52.50
34989;DHT22;21192;40.182;44.516;2023-07-13T15:51:29;29.80;52.80
34989;DHT22;21192;40.182;44.516;2023-07-13T15:54:00;29.80;53.00
34989;DHT22;21192;40.182;44.516;2023-07-13T15:56:29;29.70;53.10
34989;DHT22;21192;40.182;44.516;2023-07-13T15:58:56;29.70;53.30
34989;DHT22;21192;40.182;44.516;2023-07-13T16:01:22;29.50;53.30
34989;DHT22;21192;40.182;44.516;2023-07-13T16:03:49;29.50;53.40
34989;DHT22;21192;40.182;44.516;2023-07-13T16:06:28;29.40;53.30
34989;DHT22;21192;40.182;44.516;2023-07-13T16:08:55;29.40;53.40
34989;DHT22;21192;40.182;44.516;2023-07-13T16:11:22;29.30;53.50